HALF-HOURLY OBSERVATIONS INDEX

079

Wimmera - south

EDENHOPE AIRPORT

Site: 079099
Alt: 155.0m
90km WSW of HORSHAM


  Time     Wind        Temp  DP   Baro     Rain since   Rain past  Vis(m), Cloud(base in m), Weather
  local        km/h                         9am  last   hr   10m    
Mon 11:00   SE 15/ 24  18.3  8.0  ------    0.0   0.0   0.0   0.0   ----- 
Mon 11:30  SSE 15/ 24  19.4  7.8  ------    0.0   0.0   0.0   0.0   ----- 
Mon 12:00   SE 15/ 22  20.5  7.8  ------    0.0   0.0   0.0   0.0   ----- 
Mon 12:30   SE 15/ 22  21.1  6.2  ------    0.0   0.0   0.0   0.0   ----- 
Mon 13:00  SSE 11/ 22  22.0  6.3  ------    0.0   0.0   0.0   0.0   ----- 
Mon 13:30   SE 13/ 24  22.8  7.0  ------    0.0   0.0   0.0   0.0   ----- 
Mon 14:00  SSE 13/ 22  23.9  5.8  ------    0.0   0.0   0.0   0.0   ----- 
Mon 14:30  SSE 15/ 26  24.4  5.2  ------    0.0   0.0   0.0   0.0   ----- 
Mon 15:00   SE 17/ 30  24.5  5.3  ------    0.0   0.0   0.0   0.0   ----- 
Mon 15:30  ESE 15/ 22  25.7  6.3  ------    0.0   0.0   0.0   0.0   ----- 
Mon 16:00   SE 19/ 28  25.0  5.7  ------    0.0   0.0   0.0   0.0   ----- 
Mon 16:30   SE 15/ 22  25.1  6.3  ------    0.0   0.0   0.0   0.0   ----- 

GRAMPIANS (MOUNT WILLIAM)

Site: 079103
Alt: 1150.0m
29km W of ARARAT


  Time     Wind        Temp  DP   Baro     Rain since   Rain past  Vis(m), Cloud(base in m), Weather
  local        km/h                         9am  last   hr   10m    
Mon 11:00    S 28/ 35  12.0 -0.2  ------    0.0   0.0   0.0   0.0   ----- 
Mon 11:30    S 24/ 32  11.7  4.0  ------    0.0   0.0   0.0   0.0   ----- 
Mon 12:00    S 19/ 28  12.8  6.2  ------    0.0   0.0   0.0   0.0   ----- 
Mon 12:30    S 22/ 30  12.9  5.8  ------    0.0   0.0   0.0   0.0   ----- 
Mon 13:00    S 28/ 35  12.6  5.8  ------    0.0   0.0   0.0   0.0   ----- 
Mon 13:30    S 28/ 37  13.5  5.7  ------    0.0   0.0   0.0   0.0   ----- 
Mon 14:00    S 28/ 35  14.3  5.7  ------    0.0   0.0   0.0   0.0   ----- 
Mon 14:30  SSE 26/ 37  14.6  6.4  ------    0.0   0.0   0.0   0.0   ----- 
Mon 15:00    S 28/ 39  15.0  5.8  ------    0.0   0.0   0.0   0.0   ----- 
Mon 15:30    S 26/ 35  14.0  5.4  ------    0.0   0.0   0.0   0.0   ----- 
Mon 16:00    S 28/ 37  16.1  6.5  ------    0.0   0.0   0.0   0.0   ----- 
Mon 16:30    S 28/ 39  14.9  6.0  ------    0.0   0.0   0.0   0.0   ----- 

HORSHAM AERODROME

Site: 079100
Alt: 133.8m
5km NNW of HORSHAM


  Time     Wind        Temp  DP   Baro     Rain since   Rain past  Vis(m), Cloud(base in m), Weather
  local        km/h                         9am  last   hr   10m    
Mon 11:00  ESE 11/ 19  19.6 11.9  1019.2    0.0   0.0   0.0   0.0   10000|SC 720 
Mon 11:30  ESE 11/ 17  20.4 11.1  1019.1    0.0   0.0   0.0   0.0   10000 
Mon 12:00  ESE 13/ 20  21.7  9.6  1018.9    0.0   0.0   0.0   0.0   10000 
Mon 12:30   SE 13/ 20  22.1  7.5  1018.6    0.0   0.0   0.0   0.0   10000 
Mon 13:00    W 17/ 22  23.6  7.3  1018.3    0.0   0.0   0.0   0.0   10000 
Mon 13:30  SSE 15/ 22  24.6  6.8  1018.0    0.0   0.0   0.0   0.0   10000 
Mon 14:00  SSE 13/ 20  25.1  7.7  1017.7    0.0   0.0   0.0   0.0   10000 
Mon 14:30  SSE 13/ 19  25.5  7.1  1017.6    0.0   0.0   0.0   0.0   10000 
Mon 15:00  ESE 11/ 20  27.2  8.6  1017.1    0.0   0.0   0.0   0.0   10000 
Mon 15:30  SSW 13/ 20  26.5  7.0  1016.6    0.0   0.0   0.0   0.0   10000 
Mon 16:00    S 13/ 20  27.0  7.5  1016.4    0.0   0.0   0.0   0.0   10000 
Mon 16:30  ESE 11/ 19  27.8  8.1  1015.7    0.0   0.0   0.0   0.0   10000 

KANAGULK

Site: 079097
Alt: 188.8m
57km SW of HORSHAM


  Time     Wind        Temp  DP   Baro     Rain since   Rain past  Vis(m), Cloud(base in m), Weather
  local        km/h                         9am  last   hr   10m    
Mon 11:00    S 22/ 35  19.1  8.4  1019.6    0.0   0.0   0.0   0.0   ----- 
Mon 11:30    S 22/ 28  20.6  8.3  1019.6    0.0   0.0   0.0   0.0   ----- 
Mon 12:00  SSE 20/ 30  20.8  7.4  1019.4    0.0   0.0   0.0   0.0   ----- 
Mon 12:30  SSE 20/ 30  21.2  6.7  1019.2    0.0   0.0   0.0   0.0   ----- 
Mon 13:00  SSE 22/ 30  21.9  6.2  1019.1    0.0   0.0   0.0   0.0   ----- 
Mon 13:30  SSE 20/ 32  23.1  6.4  1018.8    0.0   0.0   0.0   0.0   ----- 
Mon 14:00  SSE 22/ 30  24.5  5.8  1018.4    0.0   0.0   0.0   0.0   ----- 
Mon 14:30  SSE 22/ 35  25.0  6.2  1018.3    0.0   0.0   0.0   0.0   ----- 
Mon 15:00  SSE 22/ 35  25.8  5.9  1017.9    0.0   0.0   0.0   0.0   ----- 
Mon 15:30    S 24/ 32  25.7  5.3  1017.6    0.0   0.0   0.0   0.0   ----- 
Mon 16:00    S 24/ 33  25.1  5.8  1017.1    0.0   0.0   0.0   0.0   ----- 
Mon 16:30  SSE 26/ 37  24.8  5.6  1016.9    0.0   0.0   0.0   0.0   ----- 

LONGERENONG

Site: 079028
Alt: 133.0m
10km ENE of HORSHAM


  Time     Wind        Temp  DP   Baro     Rain since   Rain past  Vis(m), Cloud(base in m), Weather
  local        km/h                         9am  last   hr   10m    
Mon 11:00   SE 15/ 20  19.3 10.8  ------   ----  ----  ----  ----   ----- 
Mon 11:30   SE 13/ 20  20.2 10.6  ------   ----  ----  ----  ----   ----- 
Mon 12:00   SE 11/ 20  21.2 10.1  ------   ----  ----  ----  ----   ----- 
Mon 12:30    S  7/ 15  22.1  9.9  ------   ----  ----  ----  ----   ----- 
Mon 13:00  SSE  9/ 17  23.3  9.3  ------   ----  ----  ----  ----   ----- 
Mon 13:30   SE  9/ 15  23.5  8.8  ------   ----  ----  ----  ----   ----- 
Mon 14:00   SE 15/ 24  24.3  8.3  ------   ----  ----  ----  ----   ----- 
Mon 14:30  SSE 13/ 19  24.6  6.8  ------   ----  ----  ----  ----   ----- 
Mon 15:00  SSE 11/ 20  25.5  6.7  ------   ----  ----  ----  ----   ----- 
Mon 15:30  SSE 11/ 20  26.1  6.7  ------   ----  ----  ----  ----   ----- 
Mon 16:00   SE 13/ 24  27.0  6.4  ------   ----  ----  ----  ----   ----- 
Mon 16:30   SE 20/ 30  26.6  7.1  ------   ----   0.0   0.0  ----   ----- 

PYRENEES (BEN NEVIS)

Site: 079101
Alt: 875.0m
25km ENE of ARARAT


  Time     Wind        Temp  DP   Baro     Rain since   Rain past  Vis(m), Cloud(base in m), Weather
  local        km/h                         9am  last   hr   10m    
Mon 11:00    E  9/ 17  17.0  5.6  ------    0.0   0.0   0.0   0.0   ----- 
Mon 11:30  ENE  7/ 13  16.6  6.1  ------    0.0   0.0   0.0   0.0   ----- 
Mon 12:00  ENE  6/ 11  17.7  5.3  ------    0.0   0.0   0.0   0.0   ----- 
Mon 12:30  ENE  9/ 17  18.0  4.2  ------    0.0   0.0   0.0   0.0   ----- 
Mon 13:00  ENE 13/ 19  18.7  5.5  ------    0.0   0.0   0.0   0.0   ----- 
Mon 13:30    E 13/ 20  18.7  5.9  ------    0.0   0.0   0.0   0.0   ----- 
Mon 14:00    E 11/ 20  18.8  5.6  ------    0.0   0.0   0.0   0.0   ----- 
Mon 14:30  ENE 11/ 22  21.7  6.8  ------    0.0   0.0   0.0   0.0   ----- 
Mon 15:00  ENE 11/ 17  21.7  6.4  ------    0.0   0.0   0.0   0.0   ----- 
Mon 15:30  ENE 11/ 20  21.2  5.6  ------    0.0   0.0   0.0   0.0   ----- 
Mon 16:00    E 13/ 20  22.4  6.6  ------    0.0   0.0   0.0   0.0   ----- 
Mon 16:30  ENE 13/ 22  22.9  5.8  ------    0.0   0.0   0.0   0.0   ----- 

STAWELL AERODROME

Site: 079105
Alt: 235.4m
4km WSW of STAWELL


  Time     Wind        Temp  DP   Baro     Rain since   Rain past  Vis(m), Cloud(base in m), Weather
  local        km/h                         9am  last   hr   10m    
Mon 11:00    S 24/ 37  17.5  9.4  1019.2    0.0   0.0   0.0   0.0   ----- 
Mon 11:30  SSE 24/ 35  19.0  8.1  1019.3    0.0   0.0   0.0   0.0   ----- 
Mon 12:00    S 28/ 39  20.2  7.2  1019.1    0.0   0.0   0.0   0.0   ----- 
Mon 12:30    S 20/ 33  20.7  7.0  1018.9    0.0   0.0   0.0   0.0   ----- 
Mon 13:00    S 26/ 35  20.8  6.4  1018.7    0.0   0.0   0.0   0.0   ----- 
Mon 13:30  SSE 22/ 33  22.3  5.7  1018.5    0.0   0.0   0.0   0.0   ----- 
Mon 14:00    S 24/ 37  23.0  5.0  1018.3   ----  ----  ----   0.0   ----- 
Mon 14:30  SSE 24/ 35  24.1  5.0  1017.9   ----  ----  ----   0.0   ----- 
Mon 15:00  SSE 24/ 37  24.6  4.9  1017.7   ----  ----  ----   0.0   ----- 
Mon 15:30    S 24/ 35  24.7  5.0  1017.3   ----  ----  ----   0.0   ----- 
Mon 16:00   SE 20/ 26  25.3  5.0  1017.2   ----  ----  ----   0.0   ----- 
Mon 16:30  SSE 24/ 35  25.2  4.3  1016.9   ----   0.0   0.0   0.0   -----